Time;durP1;ratioP1;P1;durP2;ratioP2;P2;SDS_P1;SDS_P2;PMS_P1;PMS_P2;Temp;Humidity;BMP_temperature;BMP_pressure;BME280_temperature;BME280_humidity;BME280_pressure;Samples;Min_cycle;Max_cycle;Signal;HPM_P1;HPM_P2
2021/07/27 01:07:07;;;;;;;5.30;4.80;;;20.60;99.90;;;;;;4991545;28;20548;-73
2021/07/27 01:09:33;;;;;;;6.07;5.47;;;20.70;99.90;;;;;;4995132;28;20974;-73
2021/07/27 01:12:00;;;;;;;7.60;4.67;;;20.70;99.90;;;;;;4994548;28;21033;-72
2021/07/27 01:14:25;;;;;;;6.13;5.53;;;20.60;99.90;;;;;;4993151;28;20289;-73
2021/07/27 01:16:51;;;;;;;6.90;5.77;;;20.40;99.90;;;;;;4994192;28;20503;-72
2021/07/27 01:19:38;;;;;;;8.17;5.50;;;20.40;99.90;;;;;;4979628;28;20181;-72
2021/07/27 01:43:40;;;;;;;6.60;6.00;;;19.90;99.90;;;;;;4990128;28;21066;-73
2021/07/27 01:46:07;;;;;;;6.13;5.17;;;19.80;99.90;;;;;;4992956;28;20692;-72
2021/07/27 01:48:33;;;;;;;6.40;5.53;;;20.20;99.90;;;;;;4991799;28;20457;-74
2021/07/27 01:51:02;;;;;;;7.43;5.50;;;20.20;99.90;;;;;;4992735;28;20472;-73
2021/07/27 01:53:35;;;;;;;6.23;5.40;;;20.10;99.90;;;;;;4993109;28;20648;-72
2021/07/27 01:56:01;;;;;;;6.43;5.20;;;20.00;99.90;;;;;;4989115;28;20463;-73
2021/07/27 01:58:27;;;;;;;5.63;5.13;;;20.00;99.90;;;;;;4991551;28;20780;-73
2021/07/27 02:00:53;;;;;;;9.40;4.80;;;20.10;99.90;;;;;;4989540;28;20459;-73
2021/07/27 02:03:19;;;;;;;7.60;5.33;;;20.00;99.90;;;;;;4995838;28;20448;-73
2021/07/27 02:05:45;;;;;;;6.77;4.80;;;19.80;99.90;;;;;;4976298;28;20501;-73
2021/07/27 02:08:12;;;;;;;6.30;5.17;;;19.90;99.90;;;;;;4991533;28;20287;-73
2021/07/27 02:10:39;;;;;;;5.90;4.63;;;19.80;99.90;;;;;;4992553;28;20455;-73
2021/07/27 02:13:13;;;;;;;6.30;5.70;;;19.70;99.90;;;;;;4991631;28;20444;-73
2021/07/27 02:15:40;;;;;;;7.73;5.40;;;19.80;99.90;;;;;;4999062;28;20464;-73
2021/07/27 02:18:05;;;;;;;5.53;5.03;;;19.90;99.90;;;;;;4998019;28;20436;-73
2021/07/27 02:20:31;;;;;;;5.70;5.00;;;19.80;99.90;;;;;;4997595;28;20991;-73
2021/07/27 02:22:57;;;;;;;6.30;5.47;;;19.90;99.90;;;;;;4996250;28;20217;-74
2021/07/27 02:25:23;;;;;;;6.13;5.37;;;19.90;99.90;;;;;;5001863;28;20664;-74
2021/07/27 02:27:48;;;;;;;7.60;5.20;;;19.70;99.90;;;;;;4995544;28;20181;-74
2021/07/27 02:30:15;;;;;;;5.43;4.40;;;19.70;99.90;;;;;;4992100;28;20197;-74
2021/07/27 02:32:43;;;;;;;6.03;5.37;;;19.70;99.90;;;;;;4996636;28;20217;-73
2021/07/27 02:35:09;;;;;;;6.60;5.27;;;19.60;99.90;;;;;;4992157;28;20491;-73
2021/07/27 02:37:35;;;;;;;5.90;5.33;;;19.60;99.90;;;;;;4990490;28;20417;-73
2021/07/27 02:40:02;;;;;;;6.23;5.00;;;19.50;99.90;;;;;;4991570;28;20460;-73
2021/07/27 02:42:28;;;;;;;8.43;5.80;;;19.60;99.90;;;;;;4991398;28;21133;-73
2021/07/27 02:44:54;;;;;;;7.70;5.50;;;19.70;99.90;;;;;;4999966;28;20499;-73
2021/07/27 02:47:19;;;;;;;6.87;4.90;;;19.80;99.90;;;;;;4993489;28;20204;-73
2021/07/27 02:49:45;;;;;;;7.57;6.87;;;19.60;99.90;;;;;;4979421;28;20217;-74
2021/07/27 02:52:11;;;;;;;8.80;6.10;;;19.60;99.90;;;;;;4993167;28;20679;-73
2021/07/27 02:54:40;;;;;;;8.03;6.10;;;19.50;99.90;;;;;;4980011;28;20597;-73
2021/07/27 02:57:05;;;;;;;8.57;6.60;;;19.20;99.90;;;;;;4994159;28;20285;-73
2021/07/27 02:59:31;;;;;;;6.97;5.33;;;19.20;99.90;;;;;;4997541;28;20543;-74
2021/07/27 03:01:56;;;;;;;5.93;5.23;;;19.20;99.90;;;;;;4994152;28;20643;-73
2021/07/27 03:04:22;;;;;;;6.50;5.80;;;19.20;99.90;;;;;;4998493;28;20707;-73
2021/07/27 03:06:48;;;;;;;6.37;5.77;;;19.40;99.90;;;;;;4996739;28;20200;-73
2021/07/27 03:09:25;;;;;;;7.43;5.60;;;19.30;99.90;;;;;;4996884;28;20832;-73
2021/07/27 03:11:51;;;;;;;7.70;5.80;;;19.20;99.90;;;;;;4992576;28;20567;-73
2021/07/27 03:14:16;;;;;;;6.13;5.53;;;19.30;99.90;;;;;;4995145;28;20531;-73
2021/07/27 03:16:42;;;;;;;7.70;5.00;;;19.30;99.90;;;;;;4997252;28;20193;-73
2021/07/27 03:19:08;;;;;;;7.67;5.23;;;19.40;99.90;;;;;;5000139;28;20429;-73
2021/07/27 03:21:34;;;;;;;7.47;5.60;;;19.40;99.90;;;;;;4995388;28;20540;-73
2021/07/27 03:23:59;;;;;;;8.33;5.23;;;19.30;99.90;;;;;;4995211;28;20200;-74
2021/07/27 03:26:25;;;;;;;8.77;5.60;;;19.50;99.90;;;;;;4990167;28;20207;-73
2021/07/27 03:28:52;;;;;;;9.33;4.77;;;19.30;99.90;;;;;;4992227;28;20194;-74
2021/07/27 03:31:18;;;;;;;6.90;5.90;;;19.40;99.90;;;;;;4993477;28;20507;-74
2021/07/27 03:33:44;;;;;;;11.50;5.40;;;19.30;99.90;;;;;;4976554;28;20468;-74
2021/07/27 03:36:10;;;;;;;8.33;6.00;;;19.20;99.90;;;;;;4995068;28;20534;-74
2021/07/27 03:38:39;;;;;;;6.33;5.40;;;19.20;99.90;;;;;;4995524;28;20464;-74
2021/07/27 03:41:09;;;;;;;5.73;5.23;;;19.10;99.90;;;;;;4991365;28;20193;-74
2021/07/27 03:43:36;;;;;;;9.43;6.27;;;19.30;99.90;;;;;;4995569;28;20478;-74
2021/07/27 03:46:05;;;;;;;10.53;5.77;;;19.10;99.90;;;;;;4992307;28;20479;-73
2021/07/27 03:48:31;;;;;;;8.00;7.00;;;19.20;99.90;;;;;;4995337;28;20407;-73
2021/07/27 03:50:56;;;;;;;5.90;5.27;;;19.10;99.90;;;;;;4991469;28;20468;-73
2021/07/27 03:53:25;;;;;;;10.60;6.27;;;19.10;99.90;;;;;;4983498;28;20202;-73
2021/07/27 03:55:52;;;;;;;9.80;7.23;;;19.10;99.90;;;;;;4991333;28;20753;-73
2021/07/27 03:58:18;;;;;;;6.30;5.70;;;19.10;99.90;;;;;;4997803;28;20436;-72
2021/07/27 04:00:44;;;;;;;6.10;5.43;;;19.10;99.90;;;;;;4995727;28;21019;-74
2021/07/27 04:03:12;;;;;;;8.40;5.43;;;19.10;99.90;;;;;;4993904;28;20189;-74
2021/07/27 04:05:37;;;;;;;8.83;5.87;;;19.20;99.90;;;;;;4993803;28;20223;-74
2021/07/27 04:08:03;;;;;;;6.43;5.73;;;19.20;99.90;;;;;;4992157;28;20452;-74
2021/07/27 04:10:29;;;;;;;6.20;5.30;;;19.30;99.90;;;;;;4991006;28;20227;-74
2021/07/27 04:13:01;;;;;;;6.00;5.40;;;19.40;99.90;;;;;;4995515;28;20286;-73
2021/07/27 04:15:26;;;;;;;6.57;5.93;;;19.60;99.90;;;;;;4989529;28;20572;-73
2021/07/27 04:17:52;;;;;;;6.20;5.37;;;19.60;99.90;;;;;;4993396;28;20449;-73
2021/07/27 04:20:18;;;;;;;7.00;4.87;;;19.70;99.90;;;;;;4994030;28;20280;-73
2021/07/27 04:22:43;;;;;;;6.70;5.83;;;19.60;99.90;;;;;;4992347;28;20201;-73
2021/07/27 04:25:09;;;;;;;7.70;6.23;;;19.70;99.90;;;;;;4993255;28;20299;-73
2021/07/27 04:27:35;;;;;;;7.80;5.87;;;19.80;99.90;;;;;;4990819;28;20206;-74
2021/07/27 04:30:00;;;;;;;9.57;5.80;;;19.80;99.90;;;;;;4993842;28;20950;-74
2021/07/27 04:32:26;;;;;;;6.60;6.00;;;19.50;99.90;;;;;;4991108;28;20224;-74
2021/07/27 04:34:52;;;;;;;8.97;6.17;;;19.50;99.90;;;;;;4977678;28;20210;-74
2021/07/27 04:37:21;;;;;;;6.20;5.33;;;19.40;99.90;;;;;;4991911;28;20207;-74
2021/07/27 04:39:53;;;;;;;8.90;5.80;;;19.40;99.90;;;;;;4989608;28;20271;-74
2021/07/27 04:42:19;;;;;;;6.90;6.20;;;19.40;99.90;;;;;;4992927;28;20435;-73
2021/07/27 04:44:44;;;;;;;8.93;6.03;;;19.30;99.90;;;;;;4958904;28;20464;-72
2021/07/27 04:47:10;;;;;;;5.63;5.13;;;19.30;99.90;;;;;;4993399;28;20198;-74
2021/07/27 04:49:36;;;;;;;8.07;6.40;;;19.30;99.90;;;;;;4990103;28;20202;-75
2021/07/27 04:52:02;;;;;;;6.47;5.77;;;19.50;99.90;;;;;;4991463;28;20349;-75
2021/07/27 04:54:29;;;;;;;7.87;5.50;;;19.40;99.90;;;;;;4992525;28;20194;-75
2021/07/27 04:56:55;;;;;;;6.20;5.60;;;19.40;99.90;;;;;;4975173;28;20200;-73
2021/07/27 04:59:20;;;;;;;7.60;5.50;;;19.60;99.90;;;;;;4975665;28;21110;-74
2021/07/27 05:01:46;;;;;;;6.30;5.57;;;19.70;99.90;;;;;;4992373;28;20199;-74
2021/07/27 05:04:11;;;;;;;5.87;5.37;;;19.70;99.90;;;;;;4975821;28;20228;-74
2021/07/27 05:06:38;;;;;;;6.93;5.80;;;19.60;99.90;;;;;;4993222;28;20793;-73
2021/07/27 05:09:04;;;;;;;8.80;5.43;;;19.40;99.90;;;;;;4988370;28;20574;-74
2021/07/27 05:11:30;;;;;;;6.53;5.70;;;19.50;99.90;;;;;;4995350;28;20467;-74
2021/07/27 05:13:56;;;;;;;8.70;5.40;;;19.60;99.90;;;;;;4988415;28;20453;-74
2021/07/27 05:16:22;;;;;;;6.00;5.40;;;19.50;99.90;;;;;;4993576;28;20236;-75
2021/07/27 05:18:48;;;;;;;5.27;4.60;;;19.70;99.90;;;;;;4993320;28;20789;-74
2021/07/27 05:21:20;;;;;;;6.30;5.20;;;19.80;99.90;;;;;;4993421;28;20196;-73
2021/07/27 05:23:46;;;;;;;8.23;6.10;;;19.70;99.90;;;;;;4993791;28;20557;-74
2021/07/27 05:26:11;;;;;;;7.20;6.10;;;19.80;99.90;;;;;;4991403;28;21311;-73
2021/07/27 05:28:37;;;;;;;6.10;5.50;;;19.80;99.90;;;;;;4988721;28;20197;-74
2021/07/27 05:31:06;;;;;;;7.00;5.70;;;19.90;99.90;;;;;;4994952;28;20611;-74
2021/07/27 05:33:32;;;;;;;6.07;5.53;;;20.00;99.90;;;;;;4994958;28;20281;-73
2021/07/27 05:35:58;;;;;;;6.40;5.80;;;20.00;99.90;;;;;;4988722;28;20987;-74
2021/07/27 05:38:23;;;;;;;6.33;5.07;;;20.00;99.90;;;;;;4992295;28;20461;-74
2021/07/27 05:40:54;;;;;;;6.70;6.00;;;20.10;99.90;;;;;;4990789;28;20252;-73
2021/07/27 05:43:20;;;;;;;7.20;5.97;;;20.10;99.90;;;;;;4991744;28;20246;-73
2021/07/27 05:45:45;;;;;;;6.80;6.07;;;20.10;99.90;;;;;;4974609;28;20479;-74
2021/07/27 05:48:11;;;;;;;6.97;6.03;;;20.10;99.90;;;;;;4973216;28;20205;-75
2021/07/27 05:50:37;;;;;;;6.97;5.83;;;20.10;99.90;;;;;;4990654;28;20185;-74
2021/07/27 05:53:02;;;;;;;7.30;6.60;;;20.00;99.90;;;;;;4992810;28;20192;-74
2021/07/27 05:55:28;;;;;;;6.60;5.90;;;20.00;99.90;;;;;;4992660;28;20290;-74
2021/07/27 05:57:54;;;;;;;6.93;5.60;;;20.20;99.90;;;;;;4994595;28;20197;-74
2021/07/27 06:00:20;;;;;;;7.00;5.60;;;20.10;99.90;;;;;;4993173;28;20193;-73
2021/07/27 06:02:45;;;;;;;8.17;5.67;;;20.20;99.90;;;;;;4994157;28;20680;-74
2021/07/27 06:05:11;;;;;;;5.73;5.13;;;20.40;99.90;;;;;;4990933;28;20982;-74
2021/07/27 06:07:37;;;;;;;6.43;5.77;;;20.40;99.90;;;;;;4994924;28;20903;-74
2021/07/27 06:10:03;;;;;;;6.50;5.83;;;20.30;99.90;;;;;;4990205;28;20440;-75
2021/07/27 06:12:29;;;;;;;6.00;5.40;;;20.40;99.90;;;;;;4992867;28;20216;-74
2021/07/27 06:14:54;;;;;;;6.70;5.53;;;20.30;99.90;;;;;;4992957;28;20465;-75
2021/07/27 06:17:20;;;;;;;5.57;5.03;;;20.30;99.90;;;;;;4993128;28;20271;-75
2021/07/27 06:19:45;;;;;;;8.70;5.90;;;20.30;99.90;;;;;;4991183;28;20205;-74
2021/07/27 06:22:11;;;;;;;7.00;6.30;;;20.50;99.90;;;;;;4975302;28;20190;-74
2021/07/27 06:24:37;;;;;;;6.70;5.57;;;20.60;99.90;;;;;;4990861;28;20263;-74
2021/07/27 06:27:04;;;;;;;9.50;6.20;;;20.60;99.90;;;;;;4989263;28;20782;-73
2021/07/27 06:29:30;;;;;;;6.03;5.53;;;20.60;99.90;;;;;;4988725;28;20186;-74
2021/07/27 06:31:56;;;;;;;6.60;6.00;;;20.60;99.90;;;;;;4988704;28;20551;-75
2021/07/27 06:34:22;;;;;;;6.73;5.67;;;20.90;99.90;;;;;;4989690;28;20552;-74
2021/07/27 06:36:47;;;;;;;6.83;5.83;;;20.90;99.90;;;;;;4983476;28;20207;-74
2021/07/27 06:39:16;;;;;;;7.37;5.43;;;21.00;99.90;;;;;;4967419;28;20337;-75
2021/07/27 06:41:42;;;;;;;7.33;5.43;;;21.00;99.90;;;;;;4989825;28;20204;-74
2021/07/27 06:44:08;;;;;;;13.03;6.17;;;21.20;99.90;;;;;;4983531;28;20452;-75
2021/07/27 06:46:34;;;;;;;7.90;5.90;;;21.30;99.90;;;;;;4985704;28;20950;-74
2021/07/27 06:48:59;;;;;;;6.70;5.87;;;21.20;99.90;;;;;;4985599;28;20870;-73
2021/07/27 06:51:25;;;;;;;9.03;5.83;;;21.20;99.90;;;;;;4971764;28;20599;-74
2021/07/27 06:53:51;;;;;;;8.23;5.90;;;21.20;99.90;;;;;;4986275;28;20324;-75
2021/07/27 06:56:17;;;;;;;6.00;5.40;;;21.30;99.90;;;;;;4985362;28;20574;-75
2021/07/27 06:58:43;;;;;;;12.40;6.40;;;21.40;99.90;;;;;;4986181;28;20273;-75
2021/07/27 07:01:11;;;;;;;6.17;5.20;;;21.50;99.90;;;;;;4986392;28;21393;-74
2021/07/27 07:03:38;;;;;;;11.43;6.10;;;21.70;99.90;;;;;;4986945;28;20452;-75
2021/07/27 07:06:04;;;;;;;8.10;5.90;;;21.80;99.90;;;;;;4989431;28;20917;-75
2021/07/27 07:08:30;;;;;;;6.23;5.63;;;21.90;99.90;;;;;;4985992;28;20441;-75
2021/07/27 07:11:04;;;;;;;6.60;6.00;;;21.80;99.90;;;;;;4985809;28;20198;-75
2021/07/27 07:13:31;;;;;;;6.90;5.43;;;21.70;99.90;;;;;;4986872;28;20190;-73
2021/07/27 07:15:57;;;;;;;6.50;5.83;;;21.80;99.90;;;;;;4990803;28;20986;-75
2021/07/27 07:18:23;;;;;;;6.87;6.17;;;21.90;99.90;;;;;;4987422;28;20444;-74
2021/07/27 07:20:51;;;;;;;7.20;6.27;;;21.80;99.90;;;;;;4991389;28;20648;-74
2021/07/27 07:23:17;;;;;;;5.93;5.37;;;21.80;99.90;;;;;;4987912;28;20839;-74
2021/07/27 07:25:43;;;;;;;7.07;5.90;;;21.80;99.90;;;;;;4992064;28;20483;-74
2021/07/27 07:28:15;;;;;;;6.20;5.60;;;21.90;99.90;;;;;;4974910;28;20946;-75
2021/07/27 07:30:41;;;;;;;6.90;6.20;;;22.00;99.90;;;;;;4986905;28;20892;-73
2021/07/27 07:33:07;;;;;;;7.03;5.50;;;22.00;99.90;;;;;;4989913;28;20872;-72
2021/07/27 07:35:33;;;;;;;7.87;5.60;;;22.10;99.90;;;;;;4990637;28;20202;-75
2021/07/27 07:38:00;;;;;;;6.10;5.50;;;22.20;99.90;;;;;;4986867;28;20532;-74
2021/07/27 07:40:26;;;;;;;8.03;5.40;;;22.40;99.90;;;;;;4988931;28;20433;-73
2021/07/27 07:42:51;;;;;;;6.13;5.13;;;22.40;99.90;;;;;;4987760;28;20437;-73
2021/07/27 07:45:17;;;;;;;7.77;6.00;;;22.40;99.90;;;;;;4989106;28;20559;-72
2021/07/27 07:47:43;;;;;;;8.63;5.70;;;22.20;99.90;;;;;;4992671;28;20199;-72
2021/07/27 07:50:10;;;;;;;6.53;5.20;;;22.20;99.90;;;;;;4994442;28;20204;-72
2021/07/27 07:52:36;;;;;;;7.20;6.30;;;22.10;99.90;;;;;;4992824;28;20471;-72
2021/07/27 07:55:08;;;;;;;5.70;5.20;;;22.20;99.90;;;;;;4988031;28;21002;-74
2021/07/27 07:57:34;;;;;;;11.30;6.80;;;22.20;99.90;;;;;;4992232;28;20276;-73
2021/07/27 08:00:00;;;;;;;8.40;5.80;;;22.20;99.90;;;;;;4993467;28;20910;-73
2021/07/27 08:02:32;;;;;;;6.00;5.40;;;22.30;99.90;;;;;;4984125;28;20445;-73
2021/07/27 08:04:58;;;;;;;5.57;5.03;;;22.40;99.90;;;;;;4995972;28;21055;-74
2021/07/27 08:07:24;;;;;;;6.00;5.40;;;22.30;99.90;;;;;;4993277;28;20443;-73
2021/07/27 08:09:50;;;;;;;6.83;6.13;;;22.40;99.90;;;;;;4993334;28;20197;-74
2021/07/27 08:12:16;;;;;;;6.63;5.93;;;22.50;99.90;;;;;;4998576;28;20244;-73
2021/07/27 08:14:45;;;;;;;7.23;5.20;;;22.60;99.90;;;;;;4995575;28;20216;-72
2021/07/27 08:17:12;;;;;;;5.97;5.37;;;22.60;99.90;;;;;;4979798;28;20444;-74
2021/07/27 08:19:38;;;;;;;6.20;5.57;;;22.70;99.90;;;;;;4995772;28;20431;-74
2021/07/27 08:22:05;;;;;;;7.63;5.93;;;22.60;99.90;;;;;;4991892;28;20452;-73
2021/07/27 08:24:32;;;;;;;5.53;5.03;;;22.70;99.90;;;;;;4993366;28;20473;-75
2021/07/27 08:26:58;;;;;;;6.57;5.57;;;22.70;99.90;;;;;;4986347;28;20444;-72
2021/07/27 08:29:24;;;;;;;8.30;6.10;;;22.70;99.90;;;;;;4994821;28;21427;-73
2021/07/27 08:31:50;;;;;;;6.47;5.80;;;22.80;99.90;;;;;;4991228;28;20482;-73
2021/07/27 08:34:17;;;;;;;6.17;5.33;;;22.90;99.90;;;;;;4996382;28;20189;-73
2021/07/27 08:36:47;;;;;;;6.67;6.03;;;22.90;99.90;;;;;;4991257;28;20858;-73
2021/07/27 08:39:13;;;;;;;7.53;5.50;;;22.80;99.90;;;;;;4997512;28;20451;-73
2021/07/27 08:41:40;;;;;;;8.10;5.83;;;22.80;99.90;;;;;;4997399;28;20559;-73
2021/07/27 08:44:18;;;;;;;6.33;5.50;;;22.90;99.90;;;;;;4996008;28;20535;-73
2021/07/27 08:46:48;;;;;;;8.03;5.20;;;22.90;99.90;;;;;;4994231;28;20436;-72
2021/07/27 08:49:15;;;;;;;5.80;5.20;;;23.00;99.90;;;;;;4994334;28;20448;-74
2021/07/27 08:51:43;;;;;;;6.03;5.43;;;23.00;99.90;;;;;;4980462;28;20536;-73
2021/07/27 08:54:09;;;;;;;6.80;5.57;;;23.00;99.90;;;;;;4989533;28;20483;-72
2021/07/27 08:56:44;;;;;;;7.67;5.50;;;23.10;99.90;;;;;;4993321;28;20429;-73
2021/07/27 08:59:10;;;;;;;6.40;5.40;;;23.20;99.90;;;;;;4992285;28;20428;-74
2021/07/27 09:01:36;;;;;;;6.93;6.07;;;23.30;99.90;;;;;;4992636;28;20444;-74
2021/07/27 09:04:02;;;;;;;6.17;5.57;;;23.40;99.90;;;;;;4993827;28;20440;-74
2021/07/27 09:06:28;;;;;;;14.73;5.97;;;23.50;99.90;;;;;;4972217;28;20436;-73
2021/07/27 09:09:07;;;;;;;5.80;5.30;;;23.60;99.90;;;;;;4992213;28;20190;-73
2021/07/27 09:11:43;;;;;;;6.03;5.43;;;23.80;99.90;;;;;;4988724;28;20236;-73
2021/07/27 09:14:15;;;;;;;5.67;5.17;;;23.90;99.90;;;;;;4987899;28;20424;-73
2021/07/27 09:16:48;;;;;;;7.13;6.30;;;23.90;99.90;;;;;;4995110;28;20433;-72
2021/07/27 09:19:14;;;;;;;7.77;6.43;;;24.00;99.90;;;;;;4989399;28;20455;-74
2021/07/27 09:21:43;;;;;;;7.10;5.80;;;24.00;99.90;;;;;;4994030;28;20449;-74
2021/07/27 09:24:28;;;;;;;7.93;6.60;;;24.10;99.90;;;;;;4994337;28;20437;-73
2021/07/27 09:27:13;;;;;;;6.53;5.90;;;24.10;99.90;;;;;;4993438;28;20449;-73
2021/07/27 09:29:47;;;;;;;7.47;5.40;;;24.20;99.90;;;;;;4987012;28;20934;-74
2021/07/27 09:32:22;;;;;;;7.20;5.70;;;24.20;99.90;;;;;;4990375;28;20480;-72
2021/07/27 09:34:48;;;;;;;6.50;5.90;;;24.40;99.90;;;;;;4990207;28;20908;-71
2021/07/27 09:37:14;;;;;;;6.50;5.90;;;24.50;99.90;;;;;;4995881;28;20431;-73
2021/07/27 09:39:40;;;;;;;7.63;5.50;;;24.60;99.90;;;;;;4992329;28;20194;-73
2021/07/27 09:42:08;;;;;;;9.97;5.80;;;24.80;99.90;;;;;;4992710;28;20458;-73
2021/07/27 09:44:36;;;;;;;6.10;5.20;;;24.80;99.90;;;;;;4992780;28;21055;-72
2021/07/27 09:47:03;;;;;;;6.77;6.10;;;24.90;99.90;;;;;;4992310;28;21089;-72
2021/07/27 09:49:29;;;;;;;5.97;5.40;;;24.90;99.90;;;;;;4992101;28;20452;-73
2021/07/27 09:51:58;;;;;;;5.83;5.00;;;24.80;99.90;;;;;;4990581;28;20473;-73
2021/07/27 09:54:26;;;;;;;6.50;5.33;;;24.90;99.90;;;;;;4989218;28;20623;-73
2021/07/27 09:56:53;;;;;;;6.73;6.07;;;24.90;99.90;;;;;;4988860;28;20439;-73
2021/07/27 09:59:21;;;;;;;6.17;5.60;;;24.90;99.90;;;;;;4993348;28;20432;-72
2021/07/27 10:01:59;;;;;;;7.83;5.43;;;24.90;99.90;;;;;;4991401;28;20535;-73
2021/07/27 10:04:31;;;;;;;5.83;4.97;;;25.00;99.90;;;;;;4996702;28;20551;-72
2021/07/27 10:06:58;;;;;;;6.67;5.03;;;25.00;99.90;;;;;;4990451;28;20427;-73
2021/07/27 10:09:26;;;;;;;6.10;5.50;;;25.10;99.90;;;;;;4991298;28;20454;-73
2021/07/27 10:11:52;;;;;;;6.07;5.47;;;25.10;99.90;;;;;;4994904;28;21101;-73
2021/07/27 10:14:19;;;;;;;6.97;5.50;;;25.10;99.90;;;;;;4991639;28;20432;-73
2021/07/27 10:16:46;;;;;;;5.97;5.37;;;25.30;99.90;;;;;;4995989;28;20450;-74
2021/07/27 10:19:17;;;;;;;6.73;5.50;;;25.20;99.90;;;;;;4992010;28;20524;-72
2021/07/27 10:21:44;;;;;;;5.23;4.83;;;25.30;99.90;;;;;;4996161;28;20421;-74
2021/07/27 10:24:23;;;;;;;5.13;4.60;;;25.40;99.90;;;;;;4993877;28;20428;-74
2021/07/27 10:26:48;;;;;;;7.60;4.80;;;25.60;99.90;;;;;;5000109;28;20432;-72
2021/07/27 10:29:16;;;;;;;6.47;5.87;;;25.70;99.90;;;;;;4996129;28;20471;-74
2021/07/27 10:31:44;;;;;;;7.17;6.57;;;25.60;99.90;;;;;;4994412;28;20618;-73
2021/07/27 10:34:20;;;;;;;6.67;5.90;;;25.50;99.90;;;;;;5000755;28;20431;-73
2021/07/27 10:36:49;;;;;;;5.80;5.30;;;25.50;99.90;;;;;;4994381;28;20850;-72
2021/07/27 10:39:16;;;;;;;7.07;6.30;;;25.70;99.90;;;;;;4998301;28;20435;-72
2021/07/27 10:41:44;;;;;;;6.53;5.93;;;25.90;99.90;;;;;;4994187;28;20433;-72
2021/07/27 10:44:12;;;;;;;6.10;4.90;;;25.80;99.90;;;;;;4999330;28;20900;-72
2021/07/27 10:46:43;;;;;;;6.17;5.57;;;25.60;99.90;;;;;;4995291;28;21341;-73
2021/07/27 10:49:25;;;;;;;6.40;5.77;;;25.70;99.90;;;;;;4997723;28;20444;-73
2021/07/27 10:51:58;;;;;;;6.83;5.60;;;25.70;99.90;;;;;;4998368;28;20521;-72
2021/07/27 10:54:31;;;;;;;5.33;4.87;;;25.70;99.90;;;;;;4995706;28;20462;-72
2021/07/27 10:57:02;;;;;;;5.93;5.43;;;25.40;99.90;;;;;;4993705;28;20428;-73
2021/07/27 10:59:35;;;;;;;6.70;6.10;;;25.50;99.90;;;;;;4998098;28;20494;-73
2021/07/27 11:02:11;;;;;;;6.20;5.60;;;25.40;99.90;;;;;;4984177;28;20479;-74
2021/07/27 11:04:38;;;;;;;6.50;5.90;;;25.40;99.90;;;;;;4995593;28;20468;-74
2021/07/27 11:07:17;;;;;;;6.53;5.93;;;25.60;99.90;;;;;;5000026;28;20439;-74
2021/07/27 11:09:57;;;;;;;6.60;5.73;;;25.70;99.90;;;;;;4998566;28;20436;-74
2021/07/27 11:12:29;;;;;;;5.60;5.10;;;25.70;99.90;;;;;;5002594;28;20520;-73
2021/07/27 11:15:19;;;;;;;5.97;5.30;;;25.60;99.90;;;;;;5002552;28;20436;-73
2021/07/27 11:17:45;;;;;;;7.00;6.00;;;25.70;99.90;;;;;;5002674;28;20841;-73
2021/07/27 11:20:13;;;;;;;6.00;5.40;;;25.60;99.90;;;;;;4986186;28;21034;-73
2021/07/27 11:23:07;;;;;;;5.83;5.23;;;25.80;99.90;;;;;;5001152;28;20444;-74
2021/07/27 11:25:33;;;;;;;5.83;5.30;;;26.00;99.90;;;;;;5001677;28;20456;-73
2021/07/27 11:28:12;;;;;;;7.07;5.90;;;26.00;99.90;;;;;;4997110;28;20833;-73
2021/07/27 11:30:39;;;;;;;5.60;5.10;;;26.10;99.90;;;;;;5001283;28;20432;-75
2021/07/27 11:33:18;;;;;;;6.17;5.57;;;25.80;99.90;;;;;;4996831;28;20468;-73
2021/07/27 11:35:55;;;;;;;5.53;4.83;;;26.10;99.90;;;;;;4996191;28;20467;-74
2021/07/27 11:38:22;;;;;;;6.17;5.57;;;26.30;99.90;;;;;;5001507;28;20801;-73
2021/07/27 11:40:49;;;;;;;7.57;5.80;;;26.30;99.90;;;;;;5000521;28;20959;-74
2021/07/27 11:43:17;;;;;;;11.70;6.20;;;26.20;99.90;;;;;;4996994;28;20440;-74
2021/07/27 11:45:44;;;;;;;6.53;5.20;;;26.50;99.90;;;;;;4999902;28;20502;-74
2021/07/27 11:48:11;;;;;;;7.00;6.30;;;26.60;99.90;;;;;;4998673;28;21021;-72
2021/07/27 11:50:39;;;;;;;5.97;5.27;;;26.70;99.90;;;;;;4965110;28;20424;-74
2021/07/27 11:53:23;;;;;;;5.70;5.10;;;26.90;99.90;;;;;;4998671;28;20456;-73
2021/07/27 11:55:49;;;;;;;6.40;5.80;;;26.80;99.90;;;;;;4995670;28;20506;-73
2021/07/27 11:58:28;;;;;;;6.47;5.87;;;27.20;99.90;;;;;;4989884;28;20437;-75
2021/07/27 12:00:58;;;;;;;5.17;4.70;;;27.20;99.90;;;;;;4991886;28;20188;-73
2021/07/27 12:03:24;;;;;;;6.57;5.97;;;27.50;99.90;;;;;;4993962;28;20420;-73
2021/07/27 12:05:51;;;;;;;6.93;5.40;;;27.30;99.90;;;;;;4989635;28;20988;-74
2021/07/27 12:08:17;;;;;;;6.37;5.60;;;27.40;99.90;;;;;;4994620;28;20440;-73
2021/07/27 12:10:43;;;;;;;6.73;5.67;;;27.40;99.90;;;;;;4993466;28;20432;-74
2021/07/27 12:13:09;;;;;;;5.17;4.70;;;27.10;99.90;;;;;;4992558;28;20476;-74
2021/07/27 12:15:34;;;;;;;6.80;5.57;;;27.70;99.90;;;;;;4995945;28;20215;-73
2021/07/27 12:18:00;;;;;;;6.37;5.70;;;27.90;99.90;;;;;;4993476;28;20221;-74
2021/07/27 12:20:29;;;;;;;6.17;5.57;;;27.90;99.90;;;;;;4999406;28;20188;-72
2021/07/27 12:22:55;;;;;;;6.40;5.80;;;28.00;99.90;;;;;;4994512;28;20190;-72
2021/07/27 12:25:21;;;;;;;7.53;5.20;;;28.20;99.90;;;;;;4991848;28;20472;-72
2021/07/27 12:27:47;;;;;;;7.73;5.97;;;28.90;99.90;;;;;;4993322;28;20436;-73
2021/07/27 12:30:13;;;;;;;6.03;5.43;;;29.20;99.90;;;;;;4980353;28;20802;-75
2021/07/27 12:32:39;;;;;;;8.40;6.00;;;29.00;99.90;;;;;;4997647;28;20565;-73
2021/07/27 12:35:05;;;;;;;6.03;5.43;;;28.80;99.90;;;;;;4994412;28;20475;-71
2021/07/27 12:37:38;;;;;;;6.30;5.10;;;29.20;99.90;;;;;;4997105;28;20292;-72
2021/07/27 12:40:04;;;;;;;5.83;5.10;;;29.20;99.90;;;;;;4993740;28;20511;-72
2021/07/27 12:42:30;;;;;;;6.57;5.97;;;29.50;99.90;;;;;;4995266;28;20463;-72
2021/07/27 12:44:56;;;;;;;6.67;6.07;;;30.30;99.90;;;;;;4974848;28;20854;-73
2021/07/27 12:47:21;;;;;;;5.73;5.23;;;30.50;99.90;;;;;;4995298;28;20197;-72
2021/07/27 12:49:47;;;;;;;6.00;5.40;;;30.90;99.90;;;;;;4995390;28;20200;-73
2021/07/27 12:52:13;;;;;;;5.67;5.10;;;31.00;99.90;;;;;;4993449;28;20224;-72
2021/07/27 12:54:39;;;;;;;6.50;5.90;;;30.50;99.90;;;;;;4991688;28;20201;-72
2021/07/27 12:57:06;;;;;;;7.40;5.67;;;30.10;99.90;;;;;;4992337;28;20436;-73
2021/07/27 12:59:32;;;;;;;6.63;6.10;;;29.90;99.90;;;;;;4998276;28;20683;-73
2021/07/27 13:01:58;;;;;;;6.03;5.53;;;29.50;99.90;;;;;;4993863;28;20455;-72
2021/07/27 13:04:23;;;;;;;6.50;5.90;;;29.20;99.90;;;;;;4996927;28;20879;-74
2021/07/27 13:06:49;;;;;;;6.87;5.77;;;28.80;99.90;;;;;;4996111;28;20181;-73
2021/07/27 13:09:15;;;;;;;6.40;5.73;;;28.80;99.90;;;;;;4996765;28;20594;-75
2021/07/27 13:11:40;;;;;;;6.10;5.60;;;28.60;99.90;;;;;;4999689;28;20244;-72
2021/07/27 13:14:06;;;;;;;6.73;6.03;;;28.50;99.90;;;;;;4994067;28;20656;-74
2021/07/27 13:16:35;;;;;;;5.63;5.23;;;28.40;99.90;;;;;;4995688;28;20196;-74
2021/07/27 13:19:01;;;;;;;6.20;5.60;;;28.50;99.90;;;;;;4996121;28;20606;-74
2021/07/27 13:21:26;;;;;;;7.00;6.10;;;28.40;99.90;;;;;;4996500;28;20432;-74
2021/07/27 13:23:52;;;;;;;7.10;6.40;;;28.30;99.90;;;;;;4994826;28;20185;-75
2021/07/27 13:26:17;;;;;;;7.20;6.50;;;28.30;99.90;;;;;;4992747;28;20217;-72
2021/07/27 13:28:43;;;;;;;7.47;6.07;;;28.30;99.90;;;;;;4990428;28;20197;-73
2021/07/27 13:31:09;;;;;;;7.83;6.50;;;28.10;99.90;;;;;;4972722;28;20774;-72
2021/07/27 13:33:34;;;;;;;6.23;5.50;;;28.20;99.90;;;;;;4995842;28;20260;-72
2021/07/27 13:36:00;;;;;;;6.33;5.83;;;27.90;99.90;;;;;;4989351;28;20249;-73
2021/07/27 13:38:27;;;;;;;6.50;5.77;;;28.10;99.90;;;;;;4992712;28;20280;-72
2021/07/27 13:40:53;;;;;;;7.23;6.50;;;27.90;99.90;;;;;;4995983;28;20512;-72
2021/07/27 13:43:19;;;;;;;6.30;5.70;;;27.60;99.90;;;;;;4995944;28;20440;-72
2021/07/27 13:45:45;;;;;;;8.57;7.30;;;27.40;99.90;;;;;;4993369;28;21001;-72
2021/07/27 13:48:11;;;;;;;7.63;6.10;;;27.50;99.90;;;;;;4989808;28;20185;-72
2021/07/27 13:50:37;;;;;;;6.40;5.77;;;27.40;99.90;;;;;;4998108;28;20424;-73
2021/07/27 13:53:03;;;;;;;8.07;6.40;;;27.40;99.90;;;;;;4982508;28;20217;-72
2021/07/27 13:55:30;;;;;;;6.30;5.70;;;27.30;99.90;;;;;;4995140;28;20301;-73
2021/07/27 13:57:56;;;;;;;6.33;5.73;;;27.40;99.90;;;;;;4995878;28;20192;-74
2021/07/27 14:00:21;;;;;;;6.97;6.37;;;27.30;99.90;;;;;;4996693;28;20456;-74
2021/07/27 14:02:49;;;;;;;9.27;5.50;;;27.40;99.90;;;;;;5000524;28;20193;-74
2021/07/27 14:05:22;;;;;;;6.87;6.10;;;27.50;99.90;;;;;;4998242;28;20212;-72
2021/07/27 14:07:49;;;;;;;6.83;6.13;;;27.20;99.90;;;;;;5001546;28;20431;-72
2021/07/27 14:10:19;;;;;;;6.13;5.53;;;27.20;99.90;;;;;;4997942;28;21005;-74
2021/07/27 14:12:44;;;;;;;6.53;5.93;;;27.40;99.90;;;;;;4998233;28;20998;-72
2021/07/27 14:15:11;;;;;;;6.17;5.60;;;27.70;99.90;;;;;;4984458;28;20457;-72